sensor_id;sensor_type;location;lat;lon;timestamp;P1;durP1;ratioP1;P2;durP2;ratioP2
53961;SDS011;39868;53.398;6.564;2023-03-20T00:02:16;4.50;;;2.15;;
53961;SDS011;39868;53.398;6.564;2023-03-20T00:07:13;2.72;;;1.65;;
53961;SDS011;39868;53.398;6.564;2023-03-20T00:09:40;2.15;;;1.85;;
53961;SDS011;39868;53.398;6.564;2023-03-20T00:12:14;4.00;;;2.35;;
53961;SDS011;39868;53.398;6.564;2023-03-20T00:14:47;2.80;;;1.83;;
53961;SDS011;39868;53.398;6.564;2023-03-20T00:17:16;2.95;;;2.00;;
53961;SDS011;39868;53.398;6.564;2023-03-20T00:19:46;3.17;;;1.80;;
53961;SDS011;39868;53.398;6.564;2023-03-20T00:22:14;3.85;;;1.67;;
53961;SDS011;39868;53.398;6.564;2023-03-20T00:24:41;4.28;;;1.88;;
53961;SDS011;39868;53.398;6.564;2023-03-20T00:27:12;3.85;;;1.95;;
53961;SDS011;39868;53.398;6.564;2023-03-20T00:29:41;2.97;;;1.85;;
53961;SDS011;39868;53.398;6.564;2023-03-20T00:32:10;3.90;;;1.77;;
53961;SDS011;39868;53.398;6.564;2023-03-20T00:34:38;4.40;;;2.10;;
53961;SDS011;39868;53.398;6.564;2023-03-20T00:37:06;3.92;;;2.20;;
53961;SDS011;39868;53.398;6.564;2023-03-20T00:39:34;5.25;;;2.00;;
53961;SDS011;39868;53.398;6.564;2023-03-20T00:42:02;5.45;;;2.38;;
53961;SDS011;39868;53.398;6.564;2023-03-20T00:47:05;4.50;;;2.20;;
53961;SDS011;39868;53.398;6.564;2023-03-20T00:49:38;4.43;;;2.08;;
53961;SDS011;39868;53.398;6.564;2023-03-20T00:52:05;3.65;;;2.28;;
53961;SDS011;39868;53.398;6.564;2023-03-20T00:54:34;6.10;;;2.38;;
53961;SDS011;39868;53.398;6.564;2023-03-20T00:57:05;3.38;;;2.20;;
53961;SDS011;39868;53.398;6.564;2023-03-20T00:59:38;6.63;;;2.00;;
53961;SDS011;39868;53.398;6.564;2023-03-20T01:02:08;4.00;;;2.45;;
53961;SDS011;39868;53.398;6.564;2023-03-20T01:04:38;3.28;;;2.30;;
53961;SDS011;39868;53.398;6.564;2023-03-20T01:07:11;3.85;;;2.50;;
53961;SDS011;39868;53.398;6.564;2023-03-20T01:09:41;3.50;;;2.00;;
53961;SDS011;39868;53.398;6.564;2023-03-20T01:12:11;6.18;;;1.92;;
53961;SDS011;39868;53.398;6.564;2023-03-20T01:14:41;2.90;;;2.15;;
53961;SDS011;39868;53.398;6.564;2023-03-20T01:17:16;4.78;;;2.08;;
53961;SDS011;39868;53.398;6.564;2023-03-20T01:19:45;2.33;;;1.83;;
53961;SDS011;39868;53.398;6.564;2023-03-20T01:22:13;4.32;;;2.17;;
53961;SDS011;39868;53.398;6.564;2023-03-20T01:24:43;3.80;;;2.40;;
53961;SDS011;39868;53.398;6.564;2023-03-20T01:27:16;4.43;;;2.42;;
53961;SDS011;39868;53.398;6.564;2023-03-20T01:29:45;6.65;;;2.20;;
53961;SDS011;39868;53.398;6.564;2023-03-20T01:32:18;3.67;;;2.08;;
53961;SDS011;39868;53.398;6.564;2023-03-20T01:34:48;2.75;;;2.00;;
53961;SDS011;39868;53.398;6.564;2023-03-20T01:37:25;4.00;;;2.22;;
53961;SDS011;39868;53.398;6.564;2023-03-20T01:39:58;2.80;;;1.80;;
53961;SDS011;39868;53.398;6.564;2023-03-20T01:42:27;2.92;;;2.08;;
53961;SDS011;39868;53.398;6.564;2023-03-20T01:44:56;2.97;;;1.92;;
53961;SDS011;39868;53.398;6.564;2023-03-20T01:47:25;3.80;;;1.92;;
53961;SDS011;39868;53.398;6.564;2023-03-20T01:52:45;3.80;;;2.30;;
53961;SDS011;39868;53.398;6.564;2023-03-20T01:55:15;3.22;;;1.98;;
53961;SDS011;39868;53.398;6.564;2023-03-20T01:57:50;4.75;;;2.30;;
53961;SDS011;39868;53.398;6.564;2023-03-20T02:00:20;4.35;;;2.22;;
53961;SDS011;39868;53.398;6.564;2023-03-20T02:02:49;4.07;;;2.47;;
53961;SDS011;39868;53.398;6.564;2023-03-20T02:05:52;4.28;;;2.20;;
53961;SDS011;39868;53.398;6.564;2023-03-20T02:08:28;4.32;;;2.33;;
53961;SDS011;39868;53.398;6.564;2023-03-20T02:11:01;5.70;;;1.98;;
53961;SDS011;39868;53.398;6.564;2023-03-20T02:13:30;3.92;;;1.90;;
53961;SDS011;39868;53.398;6.564;2023-03-20T02:18:54;4.60;;;2.08;;
53961;SDS011;39868;53.398;6.564;2023-03-20T02:41:44;5.20;;;2.40;;
53961;SDS011;39868;53.398;6.564;2023-03-20T02:44:30;6.63;;;2.70;;
53961;SDS011;39868;53.398;6.564;2023-03-20T02:50:14;4.00;;;2.47;;
53961;SDS011;39868;53.398;6.564;2023-03-20T02:52:48;3.55;;;2.17;;
53961;SDS011;39868;53.398;6.564;2023-03-20T02:55:38;6.57;;;2.80;;
53961;SDS011;39868;53.398;6.564;2023-03-20T02:58:45;6.28;;;2.67;;
53961;SDS011;39868;53.398;6.564;2023-03-20T03:03:52;4.97;;;2.70;;
53961;SDS011;39868;53.398;6.564;2023-03-20T03:06:35;9.60;;;2.63;;
53961;SDS011;39868;53.398;6.564;2023-03-20T03:09:09;7.68;;;2.92;;
53961;SDS011;39868;53.398;6.564;2023-03-20T03:11:47;4.78;;;2.80;;
53961;SDS011;39868;53.398;6.564;2023-03-20T03:17:12;5.90;;;3.08;;
53961;SDS011;39868;53.398;6.564;2023-03-20T03:19:46;9.43;;;2.90;;
53961;SDS011;39868;53.398;6.564;2023-03-20T03:22:16;6.80;;;3.03;;
53961;SDS011;39868;53.398;6.564;2023-03-20T03:24:46;5.93;;;3.35;;
53961;SDS011;39868;53.398;6.564;2023-03-20T03:27:21;9.80;;;3.70;;
53961;SDS011;39868;53.398;6.564;2023-03-20T03:29:55;6.07;;;3.08;;
53961;SDS011;39868;53.398;6.564;2023-03-20T03:32:44;6.13;;;3.15;;
53961;SDS011;39868;53.398;6.564;2023-03-20T03:35:19;10.55;;;3.50;;
53961;SDS011;39868;53.398;6.564;2023-03-20T03:38:11;6.07;;;2.97;;
53961;SDS011;39868;53.398;6.564;2023-03-20T03:43:32;8.63;;;3.30;;
53961;SDS011;39868;53.398;6.564;2023-03-20T03:46:11;7.28;;;3.67;;
53961;SDS011;39868;53.398;6.564;2023-03-20T03:48:50;6.93;;;3.25;;
53961;SDS011;39868;53.398;6.564;2023-03-20T03:51:22;5.82;;;3.20;;
53961;SDS011;39868;53.398;6.564;2023-03-20T03:54:07;7.72;;;3.10;;
53961;SDS011;39868;53.398;6.564;2023-03-20T03:56:45;6.03;;;2.97;;
53961;SDS011;39868;53.398;6.564;2023-03-20T03:59:35;6.03;;;2.88;;
53961;SDS011;39868;53.398;6.564;2023-03-20T04:02:06;7.88;;;3.55;;
53961;SDS011;39868;53.398;6.564;2023-03-20T04:04:35;8.20;;;2.90;;
53961;SDS011;39868;53.398;6.564;2023-03-20T04:07:08;7.68;;;3.10;;
53961;SDS011;39868;53.398;6.564;2023-03-20T04:09:36;8.82;;;3.17;;
53961;SDS011;39868;53.398;6.564;2023-03-20T04:12:03;10.20;;;3.97;;
53961;SDS011;39868;53.398;6.564;2023-03-20T04:14:31;6.20;;;3.35;;
53961;SDS011;39868;53.398;6.564;2023-03-20T04:16:59;7.15;;;3.35;;
53961;SDS011;39868;53.398;6.564;2023-03-20T04:19:27;6.15;;;3.35;;
53961;SDS011;39868;53.398;6.564;2023-03-20T04:21:54;5.75;;;3.50;;
53961;SDS011;39868;53.398;6.564;2023-03-20T04:24:22;11.20;;;3.50;;
53961;SDS011;39868;53.398;6.564;2023-03-20T04:26:49;6.53;;;3.63;;
53961;SDS011;39868;53.398;6.564;2023-03-20T04:29:17;9.88;;;3.80;;
53961;SDS011;39868;53.398;6.564;2023-03-20T04:31:54;5.75;;;3.40;;
53961;SDS011;39868;53.398;6.564;2023-03-20T04:34:43;9.05;;;3.72;;
53961;SDS011;39868;53.398;6.564;2023-03-20T04:37:29;8.10;;;3.63;;
53961;SDS011;39868;53.398;6.564;2023-03-20T04:40:04;8.50;;;3.53;;
53961;SDS011;39868;53.398;6.564;2023-03-20T04:42:32;13.13;;;4.35;;
53961;SDS011;39868;53.398;6.564;2023-03-20T04:45:02;6.75;;;3.50;;
53961;SDS011;39868;53.398;6.564;2023-03-20T04:47:31;7.88;;;3.75;;
53961;SDS011;39868;53.398;6.564;2023-03-20T04:49:58;10.88;;;3.75;;
53961;SDS011;39868;53.398;6.564;2023-03-20T04:52:27;5.93;;;3.17;;
53961;SDS011;39868;53.398;6.564;2023-03-20T04:54:54;6.00;;;3.47;;
53961;SDS011;39868;53.398;6.564;2023-03-20T04:57:22;8.25;;;3.55;;
53961;SDS011;39868;53.398;6.564;2023-03-20T04:59:50;6.15;;;3.35;;
53961;SDS011;39868;53.398;6.564;2023-03-20T05:02:17;8.32;;;3.42;;
53961;SDS011;39868;53.398;6.564;2023-03-20T05:04:45;7.10;;;3.65;;
53961;SDS011;39868;53.398;6.564;2023-03-20T05:07:13;7.32;;;4.47;;
53961;SDS011;39868;53.398;6.564;2023-03-20T05:10:01;9.52;;;3.45;;
53961;SDS011;39868;53.398;6.564;2023-03-20T05:12:34;8.65;;;4.20;;
53961;SDS011;39868;53.398;6.564;2023-03-20T05:15:30;5.78;;;3.03;;
53961;SDS011;39868;53.398;6.564;2023-03-20T05:18:36;7.10;;;4.00;;
53961;SDS011;39868;53.398;6.564;2023-03-20T05:21:30;7.35;;;3.67;;
53961;SDS011;39868;53.398;6.564;2023-03-20T05:24:17;10.70;;;3.92;;
53961;SDS011;39868;53.398;6.564;2023-03-20T05:27:06;7.55;;;3.35;;
53961;SDS011;39868;53.398;6.564;2023-03-20T05:30:01;8.43;;;4.13;;
53961;SDS011;39868;53.398;6.564;2023-03-20T05:32:52;8.98;;;4.18;;
53961;SDS011;39868;53.398;6.564;2023-03-20T05:35:35;8.02;;;3.88;;
53961;SDS011;39868;53.398;6.564;2023-03-20T05:38:16;10.52;;;4.57;;
53961;SDS011;39868;53.398;6.564;2023-03-20T05:41:08;10.35;;;4.55;;
53961;SDS011;39868;53.398;6.564;2023-03-20T05:43:46;12.73;;;5.00;;
53961;SDS011;39868;53.398;6.564;2023-03-20T05:46:22;14.13;;;4.97;;
53961;SDS011;39868;53.398;6.564;2023-03-20T05:49:17;10.10;;;4.65;;
53961;SDS011;39868;53.398;6.564;2023-03-20T05:52:05;12.48;;;4.75;;
53961;SDS011;39868;53.398;6.564;2023-03-20T05:54:55;11.95;;;4.90;;
53961;SDS011;39868;53.398;6.564;2023-03-20T05:57:33;13.45;;;4.78;;
53961;SDS011;39868;53.398;6.564;2023-03-20T06:00:26;11.52;;;4.82;;
53961;SDS011;39868;53.398;6.564;2023-03-20T06:03:16;10.05;;;4.95;;
53961;SDS011;39868;53.398;6.564;2023-03-20T06:06:04;8.82;;;4.75;;
53961;SDS011;39868;53.398;6.564;2023-03-20T06:08:33;11.93;;;5.05;;
53961;SDS011;39868;53.398;6.564;2023-03-20T06:11:02;12.10;;;4.72;;
53961;SDS011;39868;53.398;6.564;2023-03-20T06:13:33;12.48;;;5.13;;
53961;SDS011;39868;53.398;6.564;2023-03-20T06:16:01;12.60;;;4.72;;
53961;SDS011;39868;53.398;6.564;2023-03-20T06:18:30;9.10;;;4.72;;
53961;SDS011;39868;53.398;6.564;2023-03-20T06:20:58;9.50;;;4.82;;
53961;SDS011;39868;53.398;6.564;2023-03-20T06:23:27;16.02;;;5.18;;
53961;SDS011;39868;53.398;6.564;2023-03-20T06:25:54;10.27;;;5.07;;
53961;SDS011;39868;53.398;6.564;2023-03-20T06:28:23;14.00;;;5.45;;
53961;SDS011;39868;53.398;6.564;2023-03-20T06:30:58;9.98;;;5.05;;
53961;SDS011;39868;53.398;6.564;2023-03-20T06:33:27;9.77;;;4.65;;
53961;SDS011;39868;53.398;6.564;2023-03-20T06:35:57;8.98;;;4.72;;
53961;SDS011;39868;53.398;6.564;2023-03-20T06:38:28;10.95;;;4.43;;
53961;SDS011;39868;53.398;6.564;2023-03-20T06:40:58;11.93;;;5.50;;
53961;SDS011;39868;53.398;6.564;2023-03-20T06:43:26;10.10;;;5.25;;
53961;SDS011;39868;53.398;6.564;2023-03-20T06:45:53;9.82;;;4.85;;
53961;SDS011;39868;53.398;6.564;2023-03-20T06:48:26;15.35;;;5.75;;
53961;SDS011;39868;53.398;6.564;2023-03-20T06:50:54;11.65;;;4.78;;
53961;SDS011;39868;53.398;6.564;2023-03-20T06:53:29;11.80;;;5.57;;
53961;SDS011;39868;53.398;6.564;2023-03-20T06:56:04;10.55;;;5.55;;
53961;SDS011;39868;53.398;6.564;2023-03-20T06:58:32;13.48;;;5.55;;
53961;SDS011;39868;53.398;6.564;2023-03-20T07:01:00;13.65;;;6.10;;
53961;SDS011;39868;53.398;6.564;2023-03-20T07:03:28;11.88;;;5.05;;
53961;SDS011;39868;53.398;6.564;2023-03-20T07:05:56;9.93;;;5.22;;
53961;SDS011;39868;53.398;6.564;2023-03-20T07:08:24;10.13;;;5.05;;
53961;SDS011;39868;53.398;6.564;2023-03-20T07:10:51;9.00;;;5.00;;
53961;SDS011;39868;53.398;6.564;2023-03-20T07:13:19;13.27;;;5.35;;
53961;SDS011;39868;53.398;6.564;2023-03-20T07:15:47;12.30;;;5.72;;
53961;SDS011;39868;53.398;6.564;2023-03-20T07:18:35;12.02;;;5.07;;
53961;SDS011;39868;53.398;6.564;2023-03-20T07:21:03;11.60;;;5.22;;
53961;SDS011;39868;53.398;6.564;2023-03-20T07:23:34;12.45;;;5.65;;
53961;SDS011;39868;53.398;6.564;2023-03-20T07:26:02;11.77;;;5.43;;
53961;SDS011;39868;53.398;6.564;2023-03-20T07:28:32;9.88;;;5.15;;
53961;SDS011;39868;53.398;6.564;2023-03-20T07:31:23;12.00;;;4.57;;
53961;SDS011;39868;53.398;6.564;2023-03-20T07:34:05;9.70;;;5.32;;
53961;SDS011;39868;53.398;6.564;2023-03-20T07:36:33;12.35;;;5.53;;
53961;SDS011;39868;53.398;6.564;2023-03-20T07:39:01;9.52;;;4.80;;
53961;SDS011;39868;53.398;6.564;2023-03-20T07:41:30;11.82;;;5.75;;
53961;SDS011;39868;53.398;6.564;2023-03-20T07:44:02;12.63;;;5.50;;
53961;SDS011;39868;53.398;6.564;2023-03-20T07:46:46;12.80;;;5.38;;
53961;SDS011;39868;53.398;6.564;2023-03-20T07:49:14;15.23;;;5.55;;
53961;SDS011;39868;53.398;6.564;2023-03-20T07:51:45;12.05;;;5.82;;
53961;SDS011;39868;53.398;6.564;2023-03-20T07:54:14;15.75;;;5.90;;
53961;SDS011;39868;53.398;6.564;2023-03-20T07:56:42;18.95;;;7.90;;
53961;SDS011;39868;53.398;6.564;2023-03-20T07:59:10;12.60;;;5.90;;
53961;SDS011;39868;53.398;6.564;2023-03-20T08:01:38;18.13;;;7.20;;
53961;SDS011;39868;53.398;6.564;2023-03-20T08:04:06;9.25;;;5.15;;
53961;SDS011;39868;53.398;6.564;2023-03-20T08:06:34;12.40;;;6.50;;
53961;SDS011;39868;53.398;6.564;2023-03-20T08:09:02;13.30;;;6.68;;
53961;SDS011;39868;53.398;6.564;2023-03-20T08:11:30;10.70;;;5.15;;
53961;SDS011;39868;53.398;6.564;2023-03-20T08:13:59;14.73;;;5.57;;
53961;SDS011;39868;53.398;6.564;2023-03-20T08:16:27;11.35;;;5.30;;
53961;SDS011;39868;53.398;6.564;2023-03-20T08:18:54;9.75;;;5.13;;
53961;SDS011;39868;53.398;6.564;2023-03-20T08:21:27;11.77;;;5.35;;
53961;SDS011;39868;53.398;6.564;2023-03-20T08:23:55;12.73;;;5.18;;
53961;SDS011;39868;53.398;6.564;2023-03-20T08:26:22;14.32;;;5.40;;
53961;SDS011;39868;53.398;6.564;2023-03-20T08:28:51;8.45;;;4.28;;
53961;SDS011;39868;53.398;6.564;2023-03-20T08:31:18;15.45;;;5.75;;
53961;SDS011;39868;53.398;6.564;2023-03-20T08:33:46;13.02;;;5.90;;
53961;SDS011;39868;53.398;6.564;2023-03-20T08:36:14;9.30;;;4.95;;
53961;SDS011;39868;53.398;6.564;2023-03-20T08:38:45;10.25;;;4.82;;
53961;SDS011;39868;53.398;6.564;2023-03-20T08:41:14;12.60;;;5.53;;
53961;SDS011;39868;53.398;6.564;2023-03-20T08:43:44;10.77;;;5.28;;
53961;SDS011;39868;53.398;6.564;2023-03-20T08:46:13;10.15;;;5.03;;
53961;SDS011;39868;53.398;6.564;2023-03-20T08:48:41;10.23;;;4.93;;
53961;SDS011;39868;53.398;6.564;2023-03-20T08:51:08;10.43;;;5.13;;
53961;SDS011;39868;53.398;6.564;2023-03-20T08:53:36;13.73;;;6.25;;
53961;SDS011;39868;53.398;6.564;2023-03-20T08:56:03;19.40;;;5.70;;
53961;SDS011;39868;53.398;6.564;2023-03-20T08:58:31;14.13;;;5.68;;
53961;SDS011;39868;53.398;6.564;2023-03-20T09:01:03;10.82;;;5.95;;
53961;SDS011;39868;53.398;6.564;2023-03-20T09:05:59;13.25;;;4.95;;
53961;SDS011;39868;53.398;6.564;2023-03-20T09:08:26;16.67;;;5.75;;
53961;SDS011;39868;53.398;6.564;2023-03-20T09:10:54;10.40;;;4.78;;
53961;SDS011;39868;53.398;6.564;2023-03-20T09:13:21;10.93;;;5.13;;
53961;SDS011;39868;53.398;6.564;2023-03-20T09:15:53;7.57;;;4.77;;
53961;SDS011;39868;53.398;6.564;2023-03-20T09:18:22;14.48;;;6.75;;
53961;SDS011;39868;53.398;6.564;2023-03-20T09:20:50;16.25;;;6.85;;
53961;SDS011;39868;53.398;6.564;2023-03-20T09:23:18;15.00;;;6.82;;
53961;SDS011;39868;53.398;6.564;2023-03-20T09:25:45;19.17;;;6.82;;
53961;SDS011;39868;53.398;6.564;2023-03-20T09:28:13;15.57;;;6.68;;
53961;SDS011;39868;53.398;6.564;2023-03-20T09:30:40;15.00;;;6.75;;
53961;SDS011;39868;53.398;6.564;2023-03-20T09:33:09;11.60;;;5.82;;
53961;SDS011;39868;53.398;6.564;2023-03-20T09:35:37;18.02;;;6.88;;
53961;SDS011;39868;53.398;6.564;2023-03-20T09:38:07;19.92;;;7.22;;
53961;SDS011;39868;53.398;6.564;2023-03-20T09:43:24;14.25;;;6.53;;
53961;SDS011;39868;53.398;6.564;2023-03-20T09:57:20;13.93;;;5.38;;
53961;SDS011;39868;53.398;6.564;2023-03-20T09:59:58;11.60;;;5.63;;
53961;SDS011;39868;53.398;6.564;2023-03-20T10:05:36;10.00;;;4.90;;
53961;SDS011;39868;53.398;6.564;2023-03-20T10:08:12;8.63;;;4.90;;
53961;SDS011;39868;53.398;6.564;2023-03-20T10:19:32;10.10;;;5.10;;
53961;SDS011;39868;53.398;6.564;2023-03-20T10:24:13;12.88;;;5.10;;
53961;SDS011;39868;53.398;6.564;2023-03-20T10:26:49;13.52;;;5.20;;
53961;SDS011;39868;53.398;6.564;2023-03-20T10:29:22;11.93;;;5.65;;
53961;SDS011;39868;53.398;6.564;2023-03-20T10:37:40;14.80;;;5.97;;
53961;SDS011;39868;53.398;6.564;2023-03-20T10:40:30;10.40;;;6.60;;
53961;SDS011;39868;53.398;6.564;2023-03-20T10:43:03;11.85;;;5.32;;
53961;SDS011;39868;53.398;6.564;2023-03-20T10:45:40;13.27;;;6.57;;
53961;SDS011;39868;53.398;6.564;2023-03-20T10:48:14;13.15;;;7.72;;
53961;SDS011;39868;53.398;6.564;2023-03-20T10:50:44;11.65;;;6.18;;
53961;SDS011;39868;53.398;6.564;2023-03-20T10:53:22;12.00;;;6.80;;
53961;SDS011;39868;53.398;6.564;2023-03-20T10:55:51;12.30;;;7.13;;
53961;SDS011;39868;53.398;6.564;2023-03-20T10:58:25;12.75;;;7.38;;
53961;SDS011;39868;53.398;6.564;2023-03-20T11:00:57;13.85;;;7.25;;
53961;SDS011;39868;53.398;6.564;2023-03-20T11:03:27;20.27;;;8.90;;
53961;SDS011;39868;53.398;6.564;2023-03-20T11:08:39;9.43;;;6.00;;
53961;SDS011;39868;53.398;6.564;2023-03-20T11:11:08;11.38;;;7.07;;
53961;SDS011;39868;53.398;6.564;2023-03-20T11:13:42;12.20;;;7.28;;
53961;SDS011;39868;53.398;6.564;2023-03-20T11:16:15;17.27;;;8.23;;
53961;SDS011;39868;53.398;6.564;2023-03-20T11:18:48;13.07;;;6.78;;
53961;SDS011;39868;53.398;6.564;2023-03-20T11:21:19;16.15;;;8.85;;
53961;SDS011;39868;53.398;6.564;2023-03-20T11:23:51;16.10;;;8.73;;
53961;SDS011;39868;53.398;6.564;2023-03-20T11:26:41;17.15;;;7.95;;
53961;SDS011;39868;53.398;6.564;2023-03-20T11:29:15;14.35;;;7.53;;
53961;SDS011;39868;53.398;6.564;2023-03-20T11:32:05;13.98;;;7.55;;
53961;SDS011;39868;53.398;6.564;2023-03-20T11:34:35;26.73;;;11.00;;
53961;SDS011;39868;53.398;6.564;2023-03-20T11:37:06;34.55;;;13.25;;
53961;SDS011;39868;53.398;6.564;2023-03-20T11:39:58;23.58;;;11.15;;
53961;SDS011;39868;53.398;6.564;2023-03-20T11:42:32;24.35;;;13.27;;
53961;SDS011;39868;53.398;6.564;2023-03-20T11:45:15;13.20;;;6.93;;
53961;SDS011;39868;53.398;6.564;2023-03-20T11:47:47;14.48;;;5.25;;
53961;SDS011;39868;53.398;6.564;2023-03-20T11:53:03;22.00;;;8.80;;
53961;SDS011;39868;53.398;6.564;2023-03-20T11:56:04;10.50;;;4.25;;
53961;SDS011;39868;53.398;6.564;2023-03-20T12:01:44;7.15;;;3.40;;
53961;SDS011;39868;53.398;6.564;2023-03-20T12:04:15;4.00;;;2.67;;
53961;SDS011;39868;53.398;6.564;2023-03-20T12:06:54;5.68;;;3.38;;
53961;SDS011;39868;53.398;6.564;2023-03-20T12:09:35;4.03;;;2.55;;
53961;SDS011;39868;53.398;6.564;2023-03-20T12:20:32;8.25;;;4.60;;
53961;SDS011;39868;53.398;6.564;2023-03-20T12:25:46;7.78;;;4.32;;
53961;SDS011;39868;53.398;6.564;2023-03-20T12:31:30;9.25;;;4.47;;
53961;SDS011;39868;53.398;6.564;2023-03-20T12:34:55;7.22;;;3.95;;
53961;SDS011;39868;53.398;6.564;2023-03-20T12:37:02;8.57;;;4.57;;
53961;SDS011;39868;53.398;6.564;2023-03-20T12:39:34;13.43;;;6.32;;
53961;SDS011;39868;53.398;6.564;2023-03-20T12:44:44;16.60;;;5.80;;
53961;SDS011;39868;53.398;6.564;2023-03-20T12:50:41;8.85;;;4.65;;
53961;SDS011;39868;53.398;6.564;2023-03-20T12:53:19;7.75;;;4.68;;
53961;SDS011;39868;53.398;6.564;2023-03-20T12:58:58;15.35;;;6.97;;
53961;SDS011;39868;53.398;6.564;2023-03-20T13:01:31;10.93;;;5.97;;
53961;SDS011;39868;53.398;6.564;2023-03-20T13:06:53;7.97;;;4.82;;
53961;SDS011;39868;53.398;6.564;2023-03-20T13:09:30;5.60;;;3.40;;
53961;SDS011;39868;53.398;6.564;2023-03-20T13:14:54;6.80;;;3.50;;
53961;SDS011;39868;53.398;6.564;2023-03-20T13:20:51;5.07;;;3.60;;
53961;SDS011;39868;53.398;6.564;2023-03-20T13:23:29;7.25;;;4.03;;
53961;SDS011;39868;53.398;6.564;2023-03-20T13:35:02;6.90;;;3.80;;
53961;SDS011;39868;53.398;6.564;2023-03-20T13:37:40;9.40;;;4.38;;
53961;SDS011;39868;53.398;6.564;2023-03-20T13:46:09;49.17;;;14.10;;
53961;SDS011;39868;53.398;6.564;2023-03-20T13:48:43;45.33;;;12.13;;
53961;SDS011;39868;53.398;6.564;2023-03-20T13:51:23;17.75;;;7.65;;
53961;SDS011;39868;53.398;6.564;2023-03-20T14:02:12;8.93;;;4.97;;
53961;SDS011;39868;53.398;6.564;2023-03-20T14:04:52;12.38;;;6.82;;
53961;SDS011;39868;53.398;6.564;2023-03-20T14:07:31;12.05;;;5.78;;
53961;SDS011;39868;53.398;6.564;2023-03-20T14:12:53;12.43;;;6.05;;
53961;SDS011;39868;53.398;6.564;2023-03-20T14:15:33;9.27;;;5.03;;
53961;SDS011;39868;53.398;6.564;2023-03-20T14:18:06;15.73;;;6.70;;
53961;SDS011;39868;53.398;6.564;2023-03-20T14:20:40;11.23;;;5.45;;
53961;SDS011;39868;53.398;6.564;2023-03-20T14:23:15;8.73;;;5.10;;
53961;SDS011;39868;53.398;6.564;2023-03-20T14:25:48;5.80;;;3.95;;
53961;SDS011;39868;53.398;6.564;2023-03-20T14:30:46;5.97;;;4.28;;
53961;SDS011;39868;53.398;6.564;2023-03-20T14:36:17;7.18;;;4.78;;
53961;SDS011;39868;53.398;6.564;2023-03-20T14:38:54;8.68;;;5.32;;
53961;SDS011;39868;53.398;6.564;2023-03-20T14:44:23;8.32;;;4.45;;
53961;SDS011;39868;53.398;6.564;2023-03-20T14:47:35;7.13;;;3.70;;
53961;SDS011;39868;53.398;6.564;2023-03-20T14:50:31;5.35;;;3.42;;
53961;SDS011;39868;53.398;6.564;2023-03-20T14:53:16;3.95;;;2.97;;
